sensor_id;sensor_type;location;lat;lon;timestamp;pressure;altitude;pressure_sealevel;temperature;humidity
48774;BME280;34576;0.000;0.000;2023-02-20T00:02:31;97845.31;;;17.68;67.35
48774;BME280;34576;0.000;0.000;2023-02-20T00:09:31;97861.69;;;17.76;66.95
48774;BME280;34576;0.000;0.000;2023-02-20T00:16:31;97859.00;;;17.76;67.24
48774;BME280;34576;0.000;0.000;2023-02-20T00:23:32;97860.31;;;17.74;67.29
48774;BME280;34576;0.000;0.000;2023-02-20T00:30:32;97862.25;;;17.79;66.89
48774;BME280;34576;0.000;0.000;2023-02-20T00:37:33;97847.09;;;17.79;67.08
48774;BME280;34576;0.000;0.000;2023-02-20T00:44:33;97855.63;;;17.81;66.70
48774;BME280;34576;0.000;0.000;2023-02-20T00:51:33;97847.09;;;17.79;66.95
48774;BME280;34576;0.000;0.000;2023-02-20T00:58:35;97854.56;;;17.82;66.90
48774;BME280;34576;0.000;0.000;2023-02-20T01:05:35;97852.72;;;17.83;66.82
48774;BME280;34576;0.000;0.000;2023-02-20T01:12:35;97853.53;;;17.83;66.58
48774;BME280;34576;0.000;0.000;2023-02-20T01:19:36;97859.91;;;17.82;67.31
48774;BME280;34576;0.000;0.000;2023-02-20T01:26:36;97845.28;;;17.85;66.80
48774;BME280;34576;0.000;0.000;2023-02-20T01:33:39;97836.72;;;17.83;67.37
48774;BME280;34576;0.000;0.000;2023-02-20T01:40:45;97852.50;;;17.84;67.56
48774;BME280;34576;0.000;0.000;2023-02-20T01:47:45;97850.63;;;17.85;67.25
48774;BME280;34576;0.000;0.000;2023-02-20T01:54:48;97844.50;;;17.84;66.98
48774;BME280;34576;0.000;0.000;2023-02-20T02:01:50;97848.22;;;17.83;67.14
48774;BME280;34576;0.000;0.000;2023-02-20T02:08:51;97842.06;;;17.83;66.87
48774;BME280;34576;0.000;0.000;2023-02-20T02:23:30;97821.59;;;17.83;67.30
48774;BME280;34576;0.000;0.000;2023-02-20T02:37:47;97832.47;;;17.82;67.29
48774;BME280;34576;0.000;0.000;2023-02-20T02:44:55;97824.75;;;17.80;67.59
48774;BME280;34576;0.000;0.000;2023-02-20T02:51:56;97817.81;;;17.79;67.19
48774;BME280;34576;0.000;0.000;2023-02-20T02:58:58;97802.88;;;17.78;67.38
48774;BME280;34576;0.000;0.000;2023-02-20T03:06:20;97802.09;;;17.77;67.59
48774;BME280;34576;0.000;0.000;2023-02-20T03:13:22;97800.22;;;17.78;67.22
48774;BME280;34576;0.000;0.000;2023-02-20T03:20:47;97808.22;;;17.78;67.27
48774;BME280;34576;0.000;0.000;2023-02-20T03:27:54;97804.50;;;17.79;67.31
48774;BME280;34576;0.000;0.000;2023-02-20T03:34:57;97790.44;;;17.84;66.59
48774;BME280;34576;0.000;0.000;2023-02-20T03:42:18;97781.09;;;17.81;67.05
48774;BME280;34576;0.000;0.000;2023-02-20T03:49:46;97783.75;;;17.81;66.52
48774;BME280;34576;0.000;0.000;2023-02-20T03:56:52;97781.09;;;17.81;66.92
48774;BME280;34576;0.000;0.000;2023-02-20T04:03:55;97781.91;;;17.82;67.21
48774;BME280;34576;0.000;0.000;2023-02-20T04:10:58;97782.16;;;17.80;66.89
48774;BME280;34576;0.000;0.000;2023-02-20T04:18:06;97758.22;;;17.80;67.01
48774;BME280;34576;0.000;0.000;2023-02-20T04:32:12;97770.94;;;17.78;67.27
48774;BME280;34576;0.000;0.000;2023-02-20T04:39:12;97770.16;;;17.77;67.44
48774;BME280;34576;0.000;0.000;2023-02-20T04:46:13;97772.00;;;17.77;67.41
48774;BME280;34576;0.000;0.000;2023-02-20T04:53:14;97774.66;;;17.77;67.05
48774;BME280;34576;0.000;0.000;2023-02-20T05:00:16;97771.19;;;17.76;67.34
48774;BME280;34576;0.000;0.000;2023-02-20T05:07:16;97766.13;;;17.75;67.30
48774;BME280;34576;0.000;0.000;2023-02-20T05:14:17;97766.63;;;17.72;69.08
48774;BME280;34576;0.000;0.000;2023-02-20T05:21:17;97758.06;;;17.70;69.92
48774;BME280;34576;0.000;0.000;2023-02-20T05:28:36;97761.78;;;17.69;70.02
48774;BME280;34576;0.000;0.000;2023-02-20T05:35:38;97754.06;;;17.67;70.33
48774;BME280;34576;0.000;0.000;2023-02-20T05:42:40;97741.81;;;17.66;70.24
48774;BME280;34576;0.000;0.000;2023-02-20T05:49:40;97744.72;;;17.65;70.42
48774;BME280;34576;0.000;0.000;2023-02-20T05:56:41;97748.41;;;17.64;70.51
48774;BME280;34576;0.000;0.000;2023-02-20T06:03:41;97744.72;;;17.65;70.50
48774;BME280;34576;0.000;0.000;2023-02-20T06:10:41;97745.22;;;17.62;70.75
48774;BME280;34576;0.000;0.000;2023-02-20T06:17:42;97749.72;;;17.61;70.76
48774;BME280;34576;0.000;0.000;2023-02-20T06:24:45;97761.97;;;17.62;70.85
48774;BME280;34576;0.000;0.000;2023-02-20T06:31:46;97760.34;;;17.61;71.01
48774;BME280;34576;0.000;0.000;2023-02-20T06:38:47;97763.59;;;17.63;71.58
48774;BME280;34576;0.000;0.000;2023-02-20T06:45:47;97765.88;;;17.54;63.90
48774;BME280;34576;0.000;0.000;2023-02-20T06:52:47;97768.81;;;17.58;65.35
48774;BME280;34576;0.000;0.000;2023-02-20T06:59:48;97777.59;;;17.58;65.92
48774;BME280;34576;0.000;0.000;2023-02-20T07:06:48;97789.97;;;15.69;54.56
48774;BME280;34576;0.000;0.000;2023-02-20T07:13:49;97779.56;;;14.85;49.38
48774;BME280;34576;0.000;0.000;2023-02-20T07:20:50;97778.38;;;14.39;46.28
48774;BME280;34576;0.000;0.000;2023-02-20T07:27:50;97778.44;;;14.32;45.89
48774;BME280;34576;0.000;0.000;2023-02-20T07:34:50;97788.50;;;14.11;45.91
48774;BME280;34576;0.000;0.000;2023-02-20T07:41:51;97783.66;;;14.08;45.89
48774;BME280;34576;0.000;0.000;2023-02-20T07:49:15;97787.53;;;14.06;46.48
48774;BME280;34576;0.000;0.000;2023-02-20T07:56:15;97785.81;;;13.81;45.46
48774;BME280;34576;0.000;0.000;2023-02-20T08:03:16;97790.72;;;13.77;45.80
48774;BME280;34576;0.000;0.000;2023-02-20T08:10:17;97786.03;;;13.98;45.88
48774;BME280;34576;0.000;0.000;2023-02-20T08:17:18;97775.19;;;15.74;52.83
48774;BME280;34576;0.000;0.000;2023-02-20T08:24:18;97769.50;;;16.05;55.36
48774;BME280;34576;0.000;0.000;2023-02-20T08:31:19;97781.22;;;16.21;57.21
48774;BME280;34576;0.000;0.000;2023-02-20T08:38:21;97771.25;;;16.29;58.26
48774;BME280;34576;0.000;0.000;2023-02-20T08:45:22;97765.31;;;16.38;58.89
48774;BME280;34576;0.000;0.000;2023-02-20T08:52:23;97758.25;;;16.44;59.22
48774;BME280;34576;0.000;0.000;2023-02-20T08:59:23;97752.47;;;16.47;59.50
48774;BME280;34576;0.000;0.000;2023-02-20T09:06:24;97736.63;;;16.52;60.14
48774;BME280;34576;0.000;0.000;2023-02-20T09:13:25;97733.72;;;16.54;60.33
48774;BME280;34576;0.000;0.000;2023-02-20T09:20:25;97733.25;;;16.57;60.44
48774;BME280;34576;0.000;0.000;2023-02-20T09:27:25;97724.47;;;16.56;60.76
48774;BME280;34576;0.000;0.000;2023-02-20T09:34:26;97718.69;;;16.60;60.97
48774;BME280;34576;0.000;0.000;2023-02-20T09:48:42;97712.66;;;16.64;61.42
48774;BME280;34576;0.000;0.000;2023-02-20T09:55:44;97707.34;;;16.64;61.69
48774;BME280;34576;0.000;0.000;2023-02-20T10:02:49;97698.06;;;16.67;61.64
48774;BME280;34576;0.000;0.000;2023-02-20T10:09:52;97691.72;;;16.68;61.92
48774;BME280;34576;0.000;0.000;2023-02-20T10:31:32;97686.47;;;16.73;62.29
48774;BME280;34576;0.000;0.000;2023-02-20T10:38:37;97691.56;;;16.74;62.56
48774;BME280;34576;0.000;0.000;2023-02-20T10:45:51;97680.69;;;16.76;62.49
48774;BME280;34576;0.000;0.000;2023-02-20T11:00:31;97678.59;;;16.78;62.84
48774;BME280;34576;0.000;0.000;2023-02-20T11:07:32;97677.31;;;16.81;62.93
48774;BME280;34576;0.000;0.000;2023-02-20T11:14:39;97653.63;;;16.79;62.98
48774;BME280;34576;0.000;0.000;2023-02-20T11:21:42;97638.50;;;16.80;63.16
48774;BME280;34576;0.000;0.000;2023-02-20T11:28:44;97625.78;;;16.82;63.24
48774;BME280;34576;0.000;0.000;2023-02-20T11:35:46;97605.31;;;16.82;63.61
48774;BME280;34576;0.000;0.000;2023-02-20T11:42:48;97587.50;;;16.83;63.43
48774;BME280;34576;0.000;0.000;2023-02-20T11:49:49;97568.13;;;16.82;63.64
48774;BME280;34576;0.000;0.000;2023-02-20T11:57:26;97538.88;;;16.82;63.82
48774;BME280;34576;0.000;0.000;2023-02-20T12:04:28;97546.38;;;16.85;63.75
48774;BME280;34576;0.000;0.000;2023-02-20T12:11:28;97528.81;;;16.84;63.98
48774;BME280;34576;0.000;0.000;2023-02-20T12:18:35;97520.84;;;16.84;63.98
48774;BME280;34576;0.000;0.000;2023-02-20T12:25:59;97519.00;;;16.85;64.26
48774;BME280;34576;0.000;0.000;2023-02-20T12:40:09;97522.81;;;16.89;64.06
48774;BME280;34576;0.000;0.000;2023-02-20T13:01:33;97508.19;;;16.91;64.35
48774;BME280;34576;0.000;0.000;2023-02-20T13:08:51;97506.34;;;16.92;64.34
48774;BME280;34576;0.000;0.000;2023-02-20T13:16:10;97500.22;;;16.91;64.47
48774;BME280;34576;0.000;0.000;2023-02-20T13:30:19;97484.06;;;16.93;64.74
48774;BME280;34576;0.000;0.000;2023-02-20T13:51:33;97437.81;;;16.94;64.89
48774;BME280;34576;0.000;0.000;2023-02-20T13:58:34;97435.72;;;16.96;64.89
48774;BME280;34576;0.000;0.000;2023-02-20T14:05:34;97428.00;;;16.95;64.91
48774;BME280;34576;0.000;0.000;2023-02-20T14:12:35;97420.03;;;16.95;65.01
48774;BME280;34576;0.000;0.000;2023-02-20T14:19:37;97408.06;;;16.97;64.69
48774;BME280;34576;0.000;0.000;2023-02-20T14:26:38;97403.00;;;16.96;65.06
48774;BME280;34576;0.000;0.000;2023-02-20T14:33:38;97393.97;;;16.97;64.83
48774;BME280;34576;0.000;0.000;2023-02-20T14:40:40;97384.97;;;16.98;64.90
48774;BME280;34576;0.000;0.000;2023-02-20T14:47:59;97378.03;;;16.97;65.06
48774;BME280;34576;0.000;0.000;2023-02-20T14:55:01;97377.78;;;16.98;64.87
48774;BME280;34576;0.000;0.000;2023-02-20T15:09:05;97366.09;;;16.99;64.78
48774;BME280;34576;0.000;0.000;2023-02-20T15:30:15;97347.25;;;17.01;64.73
48774;BME280;34576;0.000;0.000;2023-02-20T15:37:18;97350.34;;;16.65;51.38
48774;BME280;34576;0.000;0.000;2023-02-20T15:44:18;97345.44;;;16.79;47.48
48774;BME280;34576;0.000;0.000;2023-02-20T15:51:19;97349.63;;;16.75;47.32
48774;BME280;34576;0.000;0.000;2023-02-20T15:58:25;97335.75;;;16.68;51.77
48774;BME280;34576;0.000;0.000;2023-02-20T16:05:26;97327.59;;;16.74;54.96
48774;BME280;34576;0.000;0.000;2023-02-20T16:12:27;97326.00;;;16.79;56.23
48774;BME280;34576;0.000;0.000;2023-02-20T16:19:27;97326.56;;;16.81;57.08
48774;BME280;34576;0.000;0.000;2023-02-20T16:26:29;97314.09;;;16.81;58.00
48774;BME280;34576;0.000;0.000;2023-02-20T16:33:31;97323.66;;;16.82;58.06
48774;BME280;34576;0.000;0.000;2023-02-20T16:40:31;97330.84;;;16.82;58.78
48774;BME280;34576;0.000;0.000;2023-02-20T16:47:32;97329.78;;;16.83;59.15
48774;BME280;34576;0.000;0.000;2023-02-20T16:54:32;97334.84;;;16.84;59.40
48774;BME280;34576;0.000;0.000;2023-02-20T17:01:32;97333.00;;;16.85;59.29
48774;BME280;34576;0.000;0.000;2023-02-20T17:08:32;97342.81;;;16.84;59.55
48774;BME280;34576;0.000;0.000;2023-02-20T17:15:33;97328.47;;;16.85;59.78
48774;BME280;34576;0.000;0.000;2023-02-20T17:22:33;97344.41;;;16.85;60.13
48774;BME280;34576;0.000;0.000;2023-02-20T17:29:34;97354.00;;;16.86;60.11
48774;BME280;34576;0.000;0.000;2023-02-20T17:36:34;97359.31;;;16.86;60.26
48774;BME280;34576;0.000;0.000;2023-02-20T17:43:34;97369.13;;;16.86;60.43
48774;BME280;34576;0.000;0.000;2023-02-20T17:50:35;97363.81;;;16.86;60.61
48774;BME280;34576;0.000;0.000;2023-02-20T17:57:37;97361.97;;;16.86;60.75
48774;BME280;34576;0.000;0.000;2023-02-20T18:04:37;97368.06;;;16.87;60.73
48774;BME280;34576;0.000;0.000;2023-02-20T18:11:38;97363.59;;;16.87;60.95
48774;BME280;34576;0.000;0.000;2023-02-20T18:18:38;97363.59;;;16.87;60.95
48774;BME280;34576;0.000;0.000;2023-02-20T18:25:38;97370.72;;;16.87;60.85
48774;BME280;34576;0.000;0.000;2023-02-20T18:32:39;97371.56;;;16.87;61.10
48774;BME280;34576;0.000;0.000;2023-02-20T18:39:39;97372.59;;;16.86;61.08
48774;BME280;34576;0.000;0.000;2023-02-20T18:46:39;97358.28;;;16.87;61.03
48774;BME280;34576;0.000;0.000;2023-02-20T18:53:39;97350.06;;;16.89;61.31
48774;BME280;34576;0.000;0.000;2023-02-20T19:00:40;97343.94;;;16.88;61.23
48774;BME280;34576;0.000;0.000;2023-02-20T19:07:41;97337.84;;;16.88;61.12
48774;BME280;34576;0.000;0.000;2023-02-20T19:14:41;97337.00;;;16.87;61.22
48774;BME280;34576;0.000;0.000;2023-02-20T19:21:41;97331.69;;;16.87;61.40
48774;BME280;34576;0.000;0.000;2023-02-20T19:28:41;97326.16;;;16.89;61.45
48774;BME280;34576;0.000;0.000;2023-02-20T19:35:42;97318.97;;;16.89;61.44
48774;BME280;34576;0.000;0.000;2023-02-20T19:42:42;97325.91;;;16.90;61.71
48774;BME280;34576;0.000;0.000;2023-02-20T19:49:45;97315.28;;;16.90;61.55
48774;BME280;34576;0.000;0.000;2023-02-20T19:56:47;97314.44;;;16.90;61.55
48774;BME280;34576;0.000;0.000;2023-02-20T20:03:47;97312.88;;;16.89;61.80
48774;BME280;34576;0.000;0.000;2023-02-20T20:10:48;97309.97;;;16.90;61.50
48774;BME280;34576;0.000;0.000;2023-02-20T20:17:49;97316.84;;;16.91;61.76
48774;BME280;34576;0.000;0.000;2023-02-20T20:24:50;97296.66;;;16.90;61.63
48774;BME280;34576;0.000;0.000;2023-02-20T20:31:50;97290.28;;;16.91;61.82
48774;BME280;34576;0.000;0.000;2023-02-20T20:38:50;97281.25;;;16.93;61.59
48774;BME280;34576;0.000;0.000;2023-02-20T20:45:51;97275.94;;;16.93;61.54
48774;BME280;34576;0.000;0.000;2023-02-20T20:52:52;97270.63;;;16.93;61.61
48774;BME280;34576;0.000;0.000;2023-02-20T20:59:52;97269.59;;;16.94;61.53
48774;BME280;34576;0.000;0.000;2023-02-20T21:06:54;97262.66;;;16.93;61.61
48774;BME280;34576;0.000;0.000;2023-02-20T21:13:55;97261.63;;;16.94;61.50
48774;BME280;34576;0.000;0.000;2023-02-20T21:20:55;97261.63;;;16.94;61.34
48774;BME280;34576;0.000;0.000;2023-02-20T21:27:55;97257.91;;;16.95;61.37
48774;BME280;34576;0.000;0.000;2023-02-20T21:34:56;97255.50;;;16.93;61.43
48774;BME280;34576;0.000;0.000;2023-02-20T21:41:56;97259.75;;;16.94;61.19
48774;BME280;34576;0.000;0.000;2023-02-20T21:49:15;97252.03;;;16.93;61.39
48774;BME280;34576;0.000;0.000;2023-02-20T21:56:15;97251.00;;;16.94;61.09
48774;BME280;34576;0.000;0.000;2023-02-20T22:03:16;97244.88;;;16.93;61.16
48774;BME280;34576;0.000;0.000;2023-02-20T22:10:16;97241.41;;;16.93;61.31
48774;BME280;34576;0.000;0.000;2023-02-20T22:17:35;97240.63;;;16.92;61.39
48774;BME280;34576;0.000;0.000;2023-02-20T22:24:54;97243.81;;;16.94;60.94
48774;BME280;34576;0.000;0.000;2023-02-20T22:32:12;97237.69;;;16.94;61.42
48774;BME280;34576;0.000;0.000;2023-02-20T22:39:31;97238.50;;;16.94;61.41
48774;BME280;34576;0.000;0.000;2023-02-20T22:46:50;97222.84;;;16.98;61.53
48774;BME280;34576;0.000;0.000;2023-02-20T22:54:09;97219.16;;;17.04;62.43
48774;BME280;34576;0.000;0.000;2023-02-20T23:01:27;97214.16;;;17.07;62.96
48774;BME280;34576;0.000;0.000;2023-02-20T23:08:46;97216.28;;;17.11;63.05
48774;BME280;34576;0.000;0.000;2023-02-20T23:16:06;97201.69;;;17.13;63.20
48774;BME280;34576;0.000;0.000;2023-02-20T23:23:25;97203.28;;;17.14;63.79
48774;BME280;34576;0.000;0.000;2023-02-20T23:30:44;97205.44;;;17.17;63.98
48774;BME280;34576;0.000;0.000;2023-02-20T23:38:02;97198.25;;;17.18;64.25
48774;BME280;34576;0.000;0.000;2023-02-20T23:45:21;97203.31;;;17.19;64.48
48774;BME280;34576;0.000;0.000;2023-02-20T23:52:40;97197.75;;;17.21;64.91
48774;BME280;34576;0.000;0.000;2023-02-20T23:59:59;97203.84;;;17.21;64.81
